Time;durP1;ratioP1;P1;durP2;ratioP2;P2;SDS_P1;SDS_P2;PMS_P1;PMS_P2;Temp;Humidity;BMP_temperature;BMP_pressure;BME280_temperature;BME280_humidity;BME280_pressure;Samples;Min_cycle;Max_cycle;Signal;HPM_P1;HPM_P2
2021/07/06 00:00:35;;;;;;;16.30;12.05;;;;;;;;;;5020451;28;20029;-73
2021/07/06 00:03:01;;;;;;;15.07;11.93;;;;;;;;;;5012575;28;20395;-71
2021/07/06 00:05:27;;;;;;;19.77;11.63;;;;;;;;;;5017775;28;20049;-66
2021/07/06 00:07:53;;;;;;;16.70;12.07;;;;;;;;;;5025269;28;20030;-72
2021/07/06 00:10:20;;;;;;;13.95;11.63;;;;;;;;;;5026173;28;20018;-74
2021/07/06 00:12:47;;;;;;;19.88;11.63;;;;;;;;;;5017104;28;20478;-66
2021/07/06 00:15:24;;;;;;;20.35;12.60;;;;;;;;;;5032517;28;20029;-74
2021/07/06 00:17:55;;;;;;;15.32;12.70;;;;;;;;;;5018308;28;20582;-71
2021/07/06 00:20:22;;;;;;;14.90;11.48;;;;;;;;;;5014775;28;20026;-74
2021/07/06 00:22:49;;;;;;;13.25;11.82;;;;;;;;;;5026029;28;20029;-71
2021/07/06 00:25:19;;;;;;;14.32;11.95;;;;;;;;;;5024073;28;20029;-74
2021/07/06 00:27:45;;;;;;;15.27;11.73;;;;;;;;;;5016056;28;20040;-65
2021/07/06 00:30:11;;;;;;;15.75;11.60;;;;;;;;;;5018527;28;20121;-69
2021/07/06 00:32:38;;;;;;;14.77;11.70;;;;;;;;;;5022999;28;20070;-71
2021/07/06 00:35:07;;;;;;;13.10;11.80;;;;;;;;;;5016879;28;20116;-70
2021/07/06 00:37:34;;;;;;;17.48;11.63;;;;;;;;;;5030656;28;20025;-71
2021/07/06 00:40:01;;;;;;;13.70;12.00;;;;;;;;;;5015871;28;20030;-71
2021/07/06 00:42:27;;;;;;;14.38;11.30;;;;;;;;;;5014485;28;20471;-74
2021/07/06 00:44:54;;;;;;;16.40;11.65;;;;;;;;;;5029067;28;20064;-67
2021/07/06 00:47:32;;;;;;;13.45;11.68;;;;;;;;;;5035333;28;20398;-73
2021/07/06 00:49:58;;;;;;;14.13;11.73;;;;;;;;;;5013762;28;20049;-66
2021/07/06 00:52:24;;;;;;;14.50;12.10;;;;;;;;;;5012953;28;20132;-70
2021/07/06 00:54:50;;;;;;;12.73;11.35;;;;;;;;;;5015414;28;20101;-68
2021/07/06 00:57:17;;;;;;;15.45;11.68;;;;;;;;;;5014345;28;20038;-73
2021/07/06 00:59:43;;;;;;;14.75;11.45;;;;;;;;;;5016911;28;20030;-73
2021/07/06 01:02:09;;;;;;;12.48;10.98;;;;;;;;;;5020506;28;20037;-74
2021/07/06 01:04:35;;;;;;;12.98;11.45;;;;;;;;;;5030161;28;20033;-68
2021/07/06 01:07:01;;;;;;;17.45;11.68;;;;;;;;;;5015697;28;20412;-73
2021/07/06 01:09:27;;;;;;;13.40;10.95;;;;;;;;;;5018831;28;20394;-66
2021/07/06 01:11:53;;;;;;;14.27;11.35;;;;;;;;;;5016652;28;20025;-73
2021/07/06 01:14:20;;;;;;;12.80;11.50;;;;;;;;;;5030456;28;20171;-70
2021/07/06 01:16:56;;;;;;;13.30;11.18;;;;;;;;;;5032785;28;20045;-74
2021/07/06 01:19:26;;;;;;;14.30;11.13;;;;;;;;;;5021150;28;20034;-73
2021/07/06 01:21:52;;;;;;;14.70;11.40;;;;;;;;;;5025704;28;20032;-70
2021/07/06 01:24:20;;;;;;;13.48;10.88;;;;;;;;;;5027476;28;20060;-74
2021/07/06 01:26:51;;;;;;;13.40;11.10;;;;;;;;;;5029134;28;20604;-72
2021/07/06 01:29:21;;;;;;;13.32;11.05;;;;;;;;;;5017692;28;20030;-74
2021/07/06 01:31:48;;;;;;;14.30;10.88;;;;;;;;;;5019412;28;20442;-72
2021/07/06 01:34:24;;;;;;;13.35;11.52;;;;;;;;;;5018015;28;20121;-73
2021/07/06 01:36:55;;;;;;;11.82;10.63;;;;;;;;;;5021731;28;20108;-73
2021/07/06 01:39:21;;;;;;;12.38;11.07;;;;;;;;;;5016606;28;20025;-69
2021/07/06 01:41:47;;;;;;;13.75;11.18;;;;;;;;;;5022010;28;20470;-71
2021/07/06 01:44:20;;;;;;;11.70;10.50;;;;;;;;;;5015254;28;20029;-73
2021/07/06 01:46:46;;;;;;;12.60;10.57;;;;;;;;;;5017148;28;20118;-73
2021/07/06 01:49:13;;;;;;;11.50;10.30;;;;;;;;;;5016867;28;20443;-73
2021/07/06 01:51:40;;;;;;;16.45;11.18;;;;;;;;;;5020869;28;20057;-74
2021/07/06 01:54:06;;;;;;;14.50;10.52;;;;;;;;;;5015371;28;20037;-72
2021/07/06 01:56:36;;;;;;;12.23;10.98;;;;;;;;;;5020224;28;20376;-73
2021/07/06 01:59:02;;;;;;;14.50;10.40;;;;;;;;;;5021392;28;20403;-73
2021/07/06 02:01:28;;;;;;;14.00;10.85;;;;;;;;;;5028997;28;20052;-73
2021/07/06 02:03:54;;;;;;;18.50;11.75;;;;;;;;;;5033428;28;20021;-71
2021/07/06 02:06:22;;;;;;;14.35;10.70;;;;;;;;;;5031470;28;20026;-66
2021/07/06 02:08:53;;;;;;;13.48;10.73;;;;;;;;;;5023877;28;20147;-67
2021/07/06 02:11:19;;;;;;;13.30;10.95;;;;;;;;;;5032135;28;20570;-68
2021/07/06 02:13:47;;;;;;;13.18;10.85;;;;;;;;;;5019173;28;20061;-73
2021/07/06 02:16:14;;;;;;;16.00;11.18;;;;;;;;;;5021295;28;20029;-73
2021/07/06 02:18:40;;;;;;;12.30;10.60;;;;;;;;;;5019047;28;20046;-71
2021/07/06 02:21:06;;;;;;;12.55;10.02;;;;;;;;;;5027024;28;20032;-73
2021/07/06 02:23:32;;;;;;;13.52;10.52;;;;;;;;;;5021598;28;20109;-73
2021/07/06 02:26:00;;;;;;;12.45;10.23;;;;;;;;;;5027794;28;20049;-66
2021/07/06 02:28:26;;;;;;;11.73;9.93;;;;;;;;;;5016356;28;20030;-67
2021/07/06 02:30:52;;;;;;;12.85;10.32;;;;;;;;;;5017100;28;20472;-73
2021/07/06 02:33:18;;;;;;;11.50;10.30;;;;;;;;;;5028536;28;20048;-73
2021/07/06 02:35:45;;;;;;;16.23;10.80;;;;;;;;;;5020010;28;20026;-67
2021/07/06 02:38:11;;;;;;;14.57;10.75;;;;;;;;;;5018623;28;20021;-73
2021/07/06 02:40:37;;;;;;;12.50;10.00;;;;;;;;;;5020567;28;20104;-73
2021/07/06 02:43:04;;;;;;;13.93;10.65;;;;;;;;;;5024992;28;20033;-69
2021/07/06 02:45:30;;;;;;;18.55;10.77;;;;;;;;;;5033637;28;20048;-66
2021/07/06 02:47:59;;;;;;;14.43;10.02;;;;;;;;;;5016474;28;20025;-73
2021/07/06 02:50:26;;;;;;;11.18;9.90;;;;;;;;;;5023295;28;20026;-73
2021/07/06 02:52:52;;;;;;;17.33;10.90;;;;;;;;;;5020421;28;20041;-74
2021/07/06 02:55:18;;;;;;;16.58;10.10;;;;;;;;;;5019191;28;20026;-73
2021/07/06 02:57:47;;;;;;;12.00;9.95;;;;;;;;;;5019431;28;20439;-70
2021/07/06 03:00:21;;;;;;;13.27;10.30;;;;;;;;;;5025838;28;20038;-66
2021/07/06 03:02:48;;;;;;;11.07;9.95;;;;;;;;;;5022426;28;20471;-73
2021/07/06 03:05:15;;;;;;;11.02;9.65;;;;;;;;;;5021981;28;20113;-72
2021/07/06 03:07:45;;;;;;;12.13;10.50;;;;;;;;;;5026962;28;20021;-73
2021/07/06 03:10:16;;;;;;;14.20;10.88;;;;;;;;;;5018236;28;20026;-70
2021/07/06 03:12:54;;;;;;;14.82;10.25;;;;;;;;;;5035639;28;20386;-72
2021/07/06 03:15:26;;;;;;;15.18;10.13;;;;;;;;;;5037504;28;20053;-72
2021/07/06 03:18:05;;;;;;;15.53;10.63;;;;;;;;;;5039032;28;20498;-72
2021/07/06 03:20:32;;;;;;;13.48;10.20;;;;;;;;;;5028482;28;20692;-69
2021/07/06 03:23:01;;;;;;;13.85;10.35;;;;;;;;;;5036401;28;20022;-72
2021/07/06 03:25:32;;;;;;;13.65;10.93;;;;;;;;;;5035874;28;20071;-72
2021/07/06 03:28:03;;;;;;;16.52;10.48;;;;;;;;;;5032552;28;20055;-72
2021/07/06 03:30:36;;;;;;;19.52;10.43;;;;;;;;;;5038098;28;20415;-73
2021/07/06 03:33:12;;;;;;;13.95;10.27;;;;;;;;;;5038255;28;20064;-73
2021/07/06 03:35:38;;;;;;;14.52;10.48;;;;;;;;;;5021307;28;20483;-66
2021/07/06 03:38:05;;;;;;;15.02;10.57;;;;;;;;;;5024152;28;20029;-74
2021/07/06 03:40:32;;;;;;;11.63;10.25;;;;;;;;;;5029985;28;20399;-73
2021/07/06 03:43:01;;;;;;;17.10;10.55;;;;;;;;;;5018061;28;20030;-73
2021/07/06 03:48:16;;;;;;;13.70;10.18;;;;;;;;;;5013544;28;20428;-70
2021/07/06 03:50:44;;;;;;;14.82;10.13;;;;;;;;;;5026869;28;20028;-73
2021/07/06 03:53:10;;;;;;;12.68;10.70;;;;;;;;;;5025149;28;20535;-71
2021/07/06 03:55:37;;;;;;;14.25;10.00;;;;;;;;;;5012873;28;20407;-71
2021/07/06 03:58:03;;;;;;;21.17;10.45;;;;;;;;;;5023020;28;20021;-72
2021/07/06 04:00:30;;;;;;;16.40;10.57;;;;;;;;;;5019419;28;20036;-72
2021/07/06 04:02:56;;;;;;;12.23;9.57;;;;;;;;;;5018321;28;20061;-78
2021/07/06 04:05:22;;;;;;;15.10;9.70;;;;;;;;;;5019378;28;20021;-75
2021/07/06 04:07:49;;;;;;;22.75;10.77;;;;;;;;;;5021452;28;20124;-77
2021/07/06 04:10:16;;;;;;;13.85;9.88;;;;;;;;;;5024929;28;20058;-85
2021/07/06 04:12:43;;;;;;;14.18;9.63;;;;;;;;;;5029920;28;20391;-75
2021/07/06 04:15:10;;;;;;;11.85;10.05;;;;;;;;;;5019398;28;20112;-76
2021/07/06 04:17:37;;;;;;;15.10;10.20;;;;;;;;;;5022338;28;20064;-66
2021/07/06 04:20:10;;;;;;;14.10;10.20;;;;;;;;;;5017694;28;20033;-69
2021/07/06 04:22:36;;;;;;;;;;;;;;;;;;5022440;28;20067;-67
2021/07/06 04:25:04;;;;;;;16.35;10.77;;;;;;;;;;5028577;28;19909;-66
2021/07/06 04:27:30;;;;;;;15.40;10.75;;;;;;;;;;5023955;28;20049;-75
2021/07/06 04:29:56;;;;;;;14.98;10.30;;;;;;;;;;5023303;28;20479;-67
2021/07/06 04:32:23;;;;;;;12.73;10.45;;;;;;;;;;5027720;28;20029;-89
2021/07/06 04:34:51;;;;;;;13.85;10.57;;;;;;;;;;5024160;28;20037;-72
2021/07/06 04:37:17;;;;;;;16.23;10.93;;;;;;;;;;5026526;28;20021;-70
2021/07/06 04:39:46;;;;;;;12.52;10.50;;;;;;;;;;5024053;28;20092;-73
2021/07/06 04:42:15;;;;;;;14.93;10.48;;;;;;;;;;5024134;28;20030;-70
2021/07/06 04:44:41;;;;;;;12.88;10.15;;;;;;;;;;5024340;28;20475;-66
2021/07/06 04:47:09;;;;;;;14.18;10.77;;;;;;;;;;5022363;28;20051;-63
2021/07/06 04:49:35;;;;;;;19.38;10.70;;;;;;;;;;5019777;28;20029;-63
2021/07/06 04:52:02;;;;;;;14.63;10.70;;;;;;;;;;5011310;28;20029;-76
2021/07/06 04:54:28;;;;;;;11.88;10.48;;;;;;;;;;5027989;28;20037;-74
2021/07/06 04:56:55;;;;;;;13.10;10.35;;;;;;;;;;5020287;28;20014;-63
2021/07/06 04:59:21;;;;;;;12.10;10.80;;;;;;;;;;5013897;28;20384;-64
2021/07/06 05:01:47;;;;;;;10.98;9.80;;;;;;;;;;5024227;28;20049;-76
2021/07/06 05:04:14;;;;;;;16.00;10.50;;;;;;;;;;5020635;28;20030;-75
2021/07/06 05:06:40;;;;;;;16.20;10.88;;;;;;;;;;5019895;28;20018;-63
2021/07/06 05:09:08;;;;;;;12.75;9.80;;;;;;;;;;5015566;28;20025;-63
2021/07/06 05:11:34;;;;;;;16.98;10.50;;;;;;;;;;5016012;28;20018;-65
2021/07/06 05:14:01;;;;;;;10.57;9.48;;;;;;;;;;5016970;28;20457;-63
2021/07/06 05:16:27;;;;;;;11.05;9.90;;;;;;;;;;5015431;28;20030;-69
2021/07/06 05:18:53;;;;;;;11.63;9.75;;;;;;;;;;5027058;28;20388;-62
2021/07/06 05:21:19;;;;;;;14.60;9.55;;;;;;;;;;5015575;28;20567;-65
2021/07/06 05:23:46;;;;;;;12.55;9.48;;;;;;;;;;5016120;28;20091;-64
2021/07/06 05:26:14;;;;;;;14.13;9.43;;;;;;;;;;5018806;28;20145;-70
2021/07/06 05:28:40;;;;;;;12.65;10.18;;;;;;;;;;5016947;28;20137;-71
2021/07/06 05:31:08;;;;;;;10.30;9.02;;;;;;;;;;5016435;28;20028;-64
2021/07/06 05:33:37;;;;;;;11.23;9.70;;;;;;;;;;5022564;28;20034;-76
2021/07/06 05:36:03;;;;;;;11.80;8.77;;;;;;;;;;5020871;28;20033;-63
2021/07/06 05:38:30;;;;;;;10.27;9.18;;;;;;;;;;5012314;28;20037;-63
2021/07/06 05:40:57;;;;;;;15.98;9.18;;;;;;;;;;5019949;28;20037;-63
2021/07/06 05:43:24;;;;;;;12.15;9.00;;;;;;;;;;5017727;28;20026;-64
2021/07/06 05:45:52;;;;;;;10.70;8.85;;;;;;;;;;5021775;28;20172;-71
2021/07/06 05:48:18;;;;;;;11.55;8.63;;;;;;;;;;5021018;28;20501;-70
2021/07/06 05:50:44;;;;;;;14.77;9.15;;;;;;;;;;5017116;28;20060;-69
2021/07/06 05:53:15;;;;;;;10.45;8.77;;;;;;;;;;5029046;28;20148;-72
2021/07/06 05:55:42;;;;;;;14.27;9.35;;;;;;;;;;5033574;28;20020;-74
2021/07/06 05:58:08;;;;;;;17.58;11.00;;;;;;;;;;5021769;28;20022;-64
2021/07/06 06:00:37;;;;;;;19.98;11.38;;;;;;;;;;5030900;28;20040;-66
2021/07/06 06:03:07;;;;;;;22.48;9.80;;;;;;;;;;5025286;28;20052;-64
2021/07/06 06:05:33;;;;;;;17.42;9.20;;;;;;;;;;5022704;28;20026;-68
2021/07/06 06:07:59;;;;;;;13.73;9.13;;;;;;;;;;5029022;28;20022;-74
2021/07/06 06:10:25;;;;;;;16.42;9.90;;;;;;;;;;5027534;28;20045;-65
2021/07/06 06:12:51;;;;;;;16.17;9.50;;;;;;;;;;5015019;28;20018;-71
2021/07/06 06:15:20;;;;;;;20.45;9.30;;;;;;;;;;5027636;28;20557;-77
2021/07/06 06:17:46;;;;;;;12.85;8.27;;;;;;;;;;5030731;28;20537;-71
2021/07/06 06:20:12;;;;;;;12.75;9.23;;;;;;;;;;5026856;28;20029;-66
2021/07/06 06:22:38;;;;;;;25.70;9.68;;;;;;;;;;5018954;28;20040;-77
2021/07/06 06:25:05;;;;;;;19.70;9.43;;;;;;;;;;5021599;28;20439;-79
2021/07/06 06:27:31;;;;;;;12.68;8.20;;;;;;;;;;5022501;28;20103;-70
2021/07/06 06:29:57;;;;;;;16.42;9.07;;;;;;;;;;5017880;28;20381;-74
2021/07/06 06:32:23;;;;;;;13.75;7.90;;;;;;;;;;5019706;28;20025;-65
2021/07/06 06:34:50;;;;;;;16.20;8.65;;;;;;;;;;5022027;28;20065;-70
2021/07/06 06:37:16;;;;;;;11.65;8.07;;;;;;;;;;5022542;28;20022;-82
2021/07/06 06:40:09;;;;;;;10.90;8.05;;;;;;;;;;5024693;28;20075;-74
2021/07/06 06:42:36;;;;;;;13.57;8.03;;;;;;;;;;5023221;28;20033;-83
2021/07/06 06:45:02;;;;;;;14.43;8.80;;;;;;;;;;5023834;28;20032;-76
2021/07/06 06:47:28;;;;;;;11.95;7.80;;;;;;;;;;5019225;28;20112;-81
2021/07/06 06:49:54;;;;;;;11.45;7.32;;;;;;;;;;5026265;28;20040;-70
2021/07/06 06:52:20;;;;;;;9.57;7.63;;;;;;;;;;5021636;28;20064;-84
2021/07/06 06:54:46;;;;;;;7.28;6.47;;;;;;;;;;5014890;28;20171;-86
2021/07/06 06:57:12;;;;;;;15.05;6.80;;;;;;;;;;5023060;28;20029;-67
2021/07/06 06:59:38;;;;;;;18.17;7.25;;;;;;;;;;5018599;28;20026;-73
2021/07/06 07:02:17;;;;;;;12.00;7.32;;;;;;;;;;5022683;28;20032;-68
2021/07/06 07:04:44;;;;;;;12.65;7.35;;;;;;;;;;5017170;28;20377;-71
2021/07/06 07:07:11;;;;;;;14.18;7.80;;;;;;;;;;5030883;28;20134;-67
2021/07/06 07:09:37;;;;;;;14.75;7.28;;;;;;;;;;5022093;28;20024;-73
2021/07/06 07:12:03;;;;;;;18.30;7.38;;;;;;;;;;5018251;28;20041;-67
2021/07/06 07:14:29;;;;;;;15.57;6.78;;;;;;;;;;5014312;28;20041;-66
2021/07/06 07:16:55;;;;;;;12.25;7.20;;;;;;;;;;5023901;28;20036;-72
2021/07/06 07:19:22;;;;;;;10.13;7.15;;;;;;;;;;5019390;28;20100;-74
2021/07/06 07:21:48;;;;;;;11.50;7.13;;;;;;;;;;5029556;28;20033;-66
2021/07/06 07:24:14;;;;;;;10.32;7.03;;;;;;;;;;5017518;28;20038;-69
2021/07/06 07:26:40;;;;;;;10.07;6.93;;;;;;;;;;5022228;28;20029;-71
2021/07/06 07:29:06;;;;;;;7.82;6.72;;;;;;;;;;5024261;28;20021;-69
2021/07/06 07:31:32;;;;;;;14.25;7.10;;;;;;;;;;5014946;28;20061;-66
2021/07/06 07:33:59;;;;;;;9.95;6.93;;;;;;;;;;5017343;28;20037;-68
2021/07/06 07:36:26;;;;;;;10.95;7.10;;;;;;;;;;5023514;28;20026;-73
2021/07/06 07:38:52;;;;;;;12.35;6.75;;;;;;;;;;5018916;28;20037;-68
2021/07/06 07:41:18;;;;;;;8.52;6.40;;;;;;;;;;5024020;28;20029;-74
2021/07/06 07:43:44;;;;;;;14.50;6.65;;;;;;;;;;5018709;28;20029;-72
2021/07/06 07:46:10;;;;;;;10.70;6.63;;;;;;;;;;5015190;28;20029;-73
2021/07/06 07:48:36;;;;;;;11.80;6.60;;;;;;;;;;5016422;28;20112;-71
2021/07/06 07:51:02;;;;;;;18.63;6.57;;;;;;;;;;5019259;28;20030;-81
2021/07/06 07:53:29;;;;;;;11.50;6.57;;;;;;;;;;5014507;28;20481;-82
2021/07/06 07:55:55;;;;;;;14.90;6.65;;;;;;;;;;5020653;28;20025;-74
2021/07/06 07:58:21;;;;;;;14.23;6.85;;;;;;;;;;5017051;28;20033;-76
2021/07/06 08:00:47;;;;;;;12.98;6.50;;;;;;;;;;5018625;28;20176;-75
2021/07/06 08:03:13;;;;;;;13.20;6.30;;;;;;;;;;5017043;28;20473;-87
2021/07/06 08:05:39;;;;;;;13.38;6.45;;;;;;;;;;5021935;28;20037;-88
2021/07/06 08:08:05;;;;;;;13.38;6.70;;;;;;;;;;5020940;28;20033;-78
2021/07/06 08:10:31;;;;;;;27.25;7.85;;;;;;;;;;5018305;28;20026;-84
2021/07/06 08:12:57;;;;;;;10.70;6.40;;;;;;;;;;5022401;28;20095;-81
2021/07/06 08:15:23;;;;;;;11.02;6.38;;;;;;;;;;5020352;28;20029;-76
2021/07/06 08:17:50;;;;;;;14.13;6.18;;;;;;;;;;5016609;28;20038;-78
2021/07/06 08:20:16;;;;;;;13.75;6.85;;;;;;;;;;5018299;28;20036;-74
2021/07/06 08:22:51;;;;;;;11.32;6.22;;;;;;;;;;5017436;28;20810;-71
2021/07/06 08:25:18;;;;;;;12.45;6.45;;;;;;;;;;5026100;28;20533;-74
2021/07/06 08:27:44;;;;;;;15.70;6.68;;;;;;;;;;5018004;28;20053;-72
2021/07/06 08:30:14;;;;;;;14.07;6.57;;;;;;;;;;5022038;28;20037;-71
2021/07/06 08:32:40;;;;;;;13.50;6.20;;;;;;;;;;5014586;28;20022;-72
2021/07/06 08:35:06;;;;;;;9.80;6.22;;;;;;;;;;5017453;28;20376;-72
2021/07/06 08:37:32;;;;;;;11.10;6.10;;;;;;;;;;5013049;28;20057;-72
2021/07/06 08:40:01;;;;;;;14.40;5.80;;;;;;;;;;5018005;28;20654;-71
2021/07/06 08:42:27;;;;;;;11.10;6.28;;;;;;;;;;5020136;28;20126;-72
2021/07/06 08:44:53;;;;;;;9.35;5.82;;;;;;;;;;5020936;28;20047;-73
2021/07/06 08:47:20;;;;;;;12.00;6.03;;;;;;;;;;5025309;28;20471;-72
2021/07/06 08:49:49;;;;;;;11.43;5.63;;;;;;;;;;5024033;28;20072;-73
2021/07/06 08:52:16;;;;;;;10.98;5.57;;;;;;;;;;5016670;28;20356;-73
2021/07/06 08:54:42;;;;;;;10.98;6.20;;;;;;;;;;5021398;28;20033;-82
2021/07/06 08:58:13;;;;;;;14.00;6.18;;;;;;;;;;5025753;28;20072;-84
2021/07/06 09:00:33;;;;;;;7.97;5.60;;;;;;;;;;4958067;28;20407;-80
2021/07/06 09:03:04;;;;;;;12.32;6.32;;;;;;;;;;4961177;28;20037;-77
2021/07/06 09:05:31;;;;;;;8.48;5.15;;;;;;;;;;4958638;28;20031;-73
2021/07/06 09:07:57;;;;;;;7.97;5.50;;;;;;;;;;4968789;28;20042;-76
2021/07/06 09:10:27;;;;;;;24.35;6.47;;;;;;;;;;4958719;28;20043;-70
2021/07/06 09:12:59;;;;;;;10.18;5.75;;;;;;;;;;4957527;28;20094;-70
2021/07/06 09:15:27;;;;;;;9.10;5.50;;;;;;;;;;4961904;28;20045;-70
2021/07/06 09:18:15;;;;;;;9.07;5.68;;;;;;;;;;4956128;28;20047;-70
2021/07/06 09:20:43;;;;;;;7.45;6.00;;;;;;;;;;4953247;28;20042;-72
2021/07/06 09:23:18;;;;;;;10.93;6.07;;;;;;;;;;4963488;28;20035;-81
2021/07/06 09:25:45;;;;;;;10.05;5.90;;;;;;;;;;4961719;28;20027;-77
2021/07/06 09:28:25;;;;;;;12.25;5.40;;;;;;;;;;4963390;28;20094;-75
2021/07/06 09:31:01;;;;;;;9.02;5.25;;;;;;;;;;4964653;28;20498;-76
2021/07/06 09:33:28;;;;;;;7.80;5.53;;;;;;;;;;4952329;28;20035;-74
2021/07/06 09:35:54;;;;;;;9.00;5.32;;;;;;;;;;4985100;28;20435;-75
2021/07/06 09:38:21;;;;;;;76.80;9.10;;;;;;;;;;5031023;28;20025;-73
2021/07/06 09:40:49;;;;;;;14.90;5.97;;;;;;;;;;5017075;28;20198;-77
2021/07/06 09:43:17;;;;;;;9.32;5.50;;;;;;;;;;5021466;28;20022;-68
2021/07/06 09:45:46;;;;;;;8.45;5.63;;;;;;;;;;5019997;28;20080;-68
2021/07/06 09:48:12;;;;;;;11.52;5.50;;;;;;;;;;5023637;28;20076;-69
2021/07/06 09:50:39;;;;;;;8.45;5.32;;;;;;;;;;5021237;28;20494;-70
2021/07/06 09:53:05;;;;;;;7.63;5.60;;;;;;;;;;5021645;28;20129;-69
2021/07/06 09:55:32;;;;;;;10.82;5.40;;;;;;;;;;5026649;28;20461;-71
2021/07/06 09:57:58;;;;;;;12.18;5.57;;;;;;;;;;5023543;28;20017;-71
2021/07/06 10:00:24;;;;;;;7.35;5.50;;;;;;;;;;5027298;28;20032;-66
2021/07/06 10:03:00;;;;;;;10.93;5.57;;;;;;;;;;5018161;28;20022;-68
2021/07/06 10:05:26;;;;;;;8.95;5.57;;;;;;;;;;5022994;28;20029;-76
2021/07/06 10:07:52;;;;;;;7.15;5.20;;;;;;;;;;5032881;28;20079;-77
2021/07/06 10:10:19;;;;;;;7.40;5.20;;;;;;;;;;5025824;28;20034;-76
2021/07/06 10:12:46;;;;;;;11.23;5.63;;;;;;;;;;5024651;28;20013;-77
2021/07/06 10:15:13;;;;;;;11.32;5.50;;;;;;;;;;5026827;28;20033;-76
2021/07/06 10:17:40;;;;;;;15.73;5.68;;;;;;;;;;5021893;28;20038;-76
2021/07/06 10:20:07;;;;;;;14.10;7.38;;;;;;;;;;5019940;28;20037;-70
2021/07/06 10:22:44;;;;;;;9.15;5.40;;;;;;;;;;5015417;28;20108;-69
2021/07/06 10:25:24;;;;;;;11.50;5.70;;;;;;;;;;5018765;28;20046;-69
2021/07/06 10:28:08;;;;;;;13.52;6.30;;;;;;;;;;5010793;28;20036;-70
2021/07/06 10:30:47;;;;;;;15.30;6.45;;;;;;;;;;5014704;28;20060;-69
2021/07/06 10:33:16;;;;;;;9.27;5.60;;;;;;;;;;5017784;28;20487;-68
2021/07/06 10:35:42;;;;;;;8.52;5.40;;;;;;;;;;5023368;28;20064;-74
2021/07/06 10:38:31;;;;;;;11.00;5.80;;;;;;;;;;5014757;28;20248;-76
2021/07/06 10:40:57;;;;;;;7.57;5.32;;;;;;;;;;5014263;28;20080;-76
2021/07/06 10:43:31;;;;;;;11.07;5.88;;;;;;;;;;5021460;28;20026;-75
2021/07/06 10:46:14;;;;;;;8.93;5.43;;;;;;;;;;5022323;28;20050;-72
2021/07/06 10:48:44;;;;;;;8.77;5.70;;;;;;;;;;5018601;28;20078;-72
2021/07/06 10:51:30;;;;;;;10.00;5.25;;;;;;;;;;5017993;28;20369;-75
2021/07/06 10:54:08;;;;;;;10.95;5.47;;;;;;;;;;5020568;28;20034;-71
2021/07/06 10:56:35;;;;;;;9.75;5.97;;;;;;;;;;5015841;28;20110;-70
2021/07/06 10:59:19;;;;;;;10.98;6.47;;;;;;;;;;5015842;28;20520;-69
2021/07/06 11:01:53;;;;;;;16.08;6.95;;;;;;;;;;5019326;28;20033;-71
2021/07/06 11:04:47;;;;;;;6.50;5.75;;;;;;;;;;4999758;28;20038;-70
2021/07/06 11:07:14;;;;;;;10.30;5.88;;;;;;;;;;5016465;28;20038;-82
2021/07/06 11:09:40;;;;;;;8.57;5.40;;;;;;;;;;5011332;28;20064;-88
2021/07/06 11:12:18;;;;;;;7.20;5.45;;;;;;;;;;5006864;28;20037;-74
2021/07/06 11:14:47;;;;;;;11.43;6.10;;;;;;;;;;5023892;28;20964;-69
2021/07/06 11:17:33;;;;;;;13.43;6.43;;;;;;;;;;5009622;28;20061;-70
2021/07/06 11:20:00;;;;;;;9.68;5.50;;;;;;;;;;5004454;28;20597;-78
2021/07/06 11:22:46;;;;;;;12.27;6.00;;;;;;;;;;5021764;28;20049;-68
2021/07/06 11:25:20;;;;;;;8.65;6.20;;;;;;;;;;5013452;28;20119;-71
2021/07/06 11:27:56;;;;;;;11.90;6.40;;;;;;;;;;5023804;28;20010;-77
2021/07/06 11:30:28;;;;;;;7.15;5.88;;;;;;;;;;5016194;28;20597;-75
2021/07/06 11:33:06;;;;;;;7.78;6.15;;;;;;;;;;5022463;28;20033;-76
2021/07/06 11:35:36;;;;;;;7.40;5.88;;;;;;;;;;5020833;28;20037;-80
2021/07/06 11:38:07;;;;;;;6.65;5.95;;;;;;;;;;5021343;28;20029;-70
2021/07/06 11:40:41;;;;;;;10.90;5.53;;;;;;;;;;5017342;28;20033;-70
2021/07/06 11:43:13;;;;;;;7.00;5.78;;;;;;;;;;5027047;28;20079;-74
2021/07/06 11:45:39;;;;;;;8.70;5.93;;;;;;;;;;5021998;28;20057;-76
2021/07/06 11:48:05;;;;;;;8.65;6.10;;;;;;;;;;5014751;28;20021;-78
2021/07/06 11:50:31;;;;;;;9.20;6.03;;;;;;;;;;5020672;28;20083;-77
2021/07/06 11:52:58;;;;;;;8.45;5.85;;;;;;;;;;5020280;28;20497;-71
2021/07/06 11:55:25;;;;;;;10.63;6.05;;;;;;;;;;5018717;28;20034;-72
2021/07/06 11:57:52;;;;;;;10.13;5.68;;;;;;;;;;5014657;28;20072;-72
2021/07/06 12:00:19;;;;;;;6.82;5.93;;;;;;;;;;5023276;28;20032;-77
2021/07/06 12:02:46;;;;;;;11.18;6.35;;;;;;;;;;5025926;28;20026;-68
2021/07/06 12:05:16;;;;;;;6.88;5.88;;;;;;;;;;5014050;28;20025;-70
2021/07/06 12:07:42;;;;;;;7.75;5.97;;;;;;;;;;5013984;28;20025;-69
2021/07/06 12:10:09;;;;;;;8.52;5.95;;;;;;;;;;5018401;28;20029;-68
2021/07/06 12:12:37;;;;;;;10.75;6.35;;;;;;;;;;5023145;28;20099;-69
2021/07/06 12:15:05;;;;;;;7.75;6.22;;;;;;;;;;5023041;28;20030;-72
2021/07/06 12:17:32;;;;;;;9.85;6.03;;;;;;;;;;5022179;28;20138;-68
2021/07/06 12:19:59;;;;;;;7.45;6.75;;;;;;;;;;5022365;28;20104;-69
2021/07/06 12:22:26;;;;;;;8.35;7.20;;;;;;;;;;5023957;28;20026;-70
2021/07/06 12:24:54;;;;;;;8.98;6.35;;;;;;;;;;5024002;28;20050;-72
2021/07/06 12:27:21;;;;;;;13.02;6.80;;;;;;;;;;5018459;28;20018;-72
2021/07/06 12:30:01;;;;;;;7.75;6.30;;;;;;;;;;5022794;28;20475;-71
2021/07/06 12:32:28;;;;;;;10.05;6.55;;;;;;;;;;5017347;28;20511;-65
2021/07/06 12:34:57;;;;;;;26.40;7.47;;;;;;;;;;5016907;28;20033;-72
2021/07/06 12:37:23;;;;;;;13.52;6.93;;;;;;;;;;5017247;28;20018;-69
2021/07/06 12:39:52;;;;;;;9.05;7.05;;;;;;;;;;5017018;28;20026;-72
2021/07/06 12:42:19;;;;;;;12.13;7.20;;;;;;;;;;5025735;28;20033;-72
2021/07/06 12:44:52;;;;;;;9.02;6.95;;;;;;;;;;5024421;28;20080;-66
2021/07/06 12:47:23;;;;;;;9.15;6.88;;;;;;;;;;5016039;28;20530;-71
2021/07/06 12:49:52;;;;;;;15.38;7.60;;;;;;;;;;5015170;28;20036;-72
2021/07/06 12:52:19;;;;;;;8.02;7.22;;;;;;;;;;5023271;28;20030;-67
2021/07/06 12:54:45;;;;;;;10.38;7.07;;;;;;;;;;5018182;28;20033;-69
2021/07/06 12:57:25;;;;;;;11.02;7.20;;;;;;;;;;5024998;28;20079;-72
2021/07/06 12:59:51;;;;;;;8.88;6.68;;;;;;;;;;5022805;28;20025;-73
2021/07/06 13:02:19;;;;;;;11.15;7.35;;;;;;;;;;5027557;28;20034;-69
2021/07/06 13:04:49;;;;;;;12.27;7.07;;;;;;;;;;5024166;28;20033;-65
2021/07/06 13:07:18;;;;;;;8.93;7.50;;;;;;;;;;5025718;28;20029;-72
2021/07/06 13:09:44;;;;;;;11.80;6.90;;;;;;;;;;5019078;28;20430;-71
2021/07/06 13:12:13;;;;;;;9.70;7.20;;;;;;;;;;5023846;28;20091;-71
2021/07/06 13:14:39;;;;;;;9.85;7.05;;;;;;;;;;5019133;28;20792;-72
2021/07/06 13:17:25;;;;;;;11.38;7.13;;;;;;;;;;5030175;28;20060;-70
2021/07/06 13:20:03;;;;;;;12.88;7.50;;;;;;;;;;5025217;28;20029;-68
2021/07/06 13:22:29;;;;;;;9.20;6.93;;;;;;;;;;5027780;28;20053;-72
2021/07/06 13:24:58;;;;;;;11.68;7.40;;;;;;;;;;5019713;28;20034;-67
2021/07/06 13:27:24;;;;;;;8.20;7.00;;;;;;;;;;5026327;28;20434;-73
2021/07/06 13:29:50;;;;;;;9.90;7.32;;;;;;;;;;5024486;28;20475;-69
2021/07/06 13:32:16;;;;;;;11.35;8.05;;;;;;;;;;5015812;28;20030;-70
2021/07/06 13:34:42;;;;;;;9.85;7.60;;;;;;;;;;5022005;28;20041;-70
2021/07/06 13:37:10;;;;;;;8.35;7.45;;;;;;;;;;5023112;28;20502;-72
2021/07/06 13:39:37;;;;;;;11.00;7.65;;;;;;;;;;5017730;28;20101;-70
2021/07/06 13:42:03;;;;;;;21.20;8.15;;;;;;;;;;5015560;28;20026;-75
2021/07/06 13:44:34;;;;;;;11.02;7.25;;;;;;;;;;5024987;28;20033;-71
2021/07/06 13:47:03;;;;;;;8.60;7.38;;;;;;;;;;5022619;28;20157;-71
2021/07/06 13:49:30;;;;;;;12.32;7.22;;;;;;;;;;5021739;28;20506;-72
2021/07/06 13:51:58;;;;;;;14.07;7.38;;;;;;;;;;5017261;28;20048;-72
2021/07/06 13:54:29;;;;;;;10.38;6.90;;;;;;;;;;5014126;28;20041;-71
2021/07/06 13:59:47;;;;;;;9.83;7.07;;;;;;;;;;5019129;28;20040;-74
2021/07/06 14:02:13;;;;;;;9.95;7.88;;;;;;;;;;5022868;28;20267;-77
2021/07/06 14:04:39;;;;;;;7.85;6.97;;;;;;;;;;5029869;28;20092;-78
2021/07/06 14:07:07;;;;;;;9.75;7.05;;;;;;;;;;5022831;28;20076;-71
2021/07/06 14:09:33;;;;;;;8.38;7.07;;;;;;;;;;5025705;28;20044;-73
2021/07/06 14:12:00;;;;;;;12.57;7.85;;;;;;;;;;5024597;28;20543;-71
2021/07/06 14:14:26;;;;;;;9.60;7.20;;;;;;;;;;5026887;28;20482;-68
2021/07/06 14:16:52;;;;;;;8.43;7.18;;;;;;;;;;5024917;28;20387;-71
2021/07/06 14:19:19;;;;;;;10.80;7.30;;;;;;;;;;5022255;28;20108;-69
2021/07/06 14:21:59;;;;;;;11.02;7.55;;;;;;;;;;5020550;28;20560;-69
2021/07/06 14:24:46;;;;;;;8.95;6.80;;;;;;;;;;5023714;28;20025;-70
2021/07/06 14:27:13;;;;;;;13.40;7.35;;;;;;;;;;5018476;28;20048;-70
2021/07/06 14:29:39;;;;;;;8.30;6.95;;;;;;;;;;5019171;28;20452;-69
2021/07/06 14:32:16;;;;;;;8.93;7.22;;;;;;;;;;5016248;28;20498;-70
2021/07/06 14:34:42;;;;;;;8.70;7.07;;;;;;;;;;5017998;28;20037;-78
2021/07/06 14:37:09;;;;;;;11.98;7.45;;;;;;;;;;5019763;28;20034;-75
2021/07/06 14:39:35;;;;;;;14.40;7.18;;;;;;;;;;5022859;28;20029;-77
2021/07/06 14:42:04;;;;;;;16.52;7.88;;;;;;;;;;5019744;28;20029;-69